sensor_id;sensor_type;location;lat;lon;timestamp;temperature;humidity
67598;DHT22;62026;39.230;9.122;2023-06-04T00:02:11;22.00;74.50
67598;DHT22;62026;39.230;9.122;2023-06-04T00:04:37;22.00;74.60
67598;DHT22;62026;39.230;9.122;2023-06-04T00:07:04;22.00;74.60
67598;DHT22;62026;39.230;9.122;2023-06-04T00:09:30;22.00;74.40
67598;DHT22;62026;39.230;9.122;2023-06-04T00:11:56;22.00;74.20
67598;DHT22;62026;39.230;9.122;2023-06-04T00:14:23;22.00;74.10
67598;DHT22;62026;39.230;9.122;2023-06-04T00:16:49;22.00;73.90
67598;DHT22;62026;39.230;9.122;2023-06-04T00:19:15;22.00;74.00
67598;DHT22;62026;39.230;9.122;2023-06-04T00:21:41;22.00;74.20
67598;DHT22;62026;39.230;9.122;2023-06-04T00:24:07;22.00;74.50
67598;DHT22;62026;39.230;9.122;2023-06-04T00:26:33;21.90;74.60
67598;DHT22;62026;39.230;9.122;2023-06-04T00:29:00;21.80;75.00
67598;DHT22;62026;39.230;9.122;2023-06-04T00:31:26;21.80;75.30
67598;DHT22;62026;39.230;9.122;2023-06-04T00:33:52;21.80;75.30
67598;DHT22;62026;39.230;9.122;2023-06-04T00:36:18;21.80;75.30
67598;DHT22;62026;39.230;9.122;2023-06-04T00:38:44;21.80;75.40
67598;DHT22;62026;39.230;9.122;2023-06-04T00:41:10;21.80;75.30
67598;DHT22;62026;39.230;9.122;2023-06-04T00:43:36;21.80;75.20
67598;DHT22;62026;39.230;9.122;2023-06-04T00:46:02;21.90;75.00
67598;DHT22;62026;39.230;9.122;2023-06-04T00:48:29;21.80;75.10
67598;DHT22;62026;39.230;9.122;2023-06-04T00:50:56;21.70;75.30
67598;DHT22;62026;39.230;9.122;2023-06-04T00:53:24;21.70;75.40
67598;DHT22;62026;39.230;9.122;2023-06-04T00:55:51;21.70;75.30
67598;DHT22;62026;39.230;9.122;2023-06-04T00:58:17;21.80;75.10
67598;DHT22;62026;39.230;9.122;2023-06-04T01:00:46;21.80;74.90
67598;DHT22;62026;39.230;9.122;2023-06-04T01:03:18;21.70;75.10
67598;DHT22;62026;39.230;9.122;2023-06-04T01:08:26;21.60;75.00
67598;DHT22;62026;39.230;9.122;2023-06-04T01:10:56;21.70;74.80
67598;DHT22;62026;39.230;9.122;2023-06-04T01:13:22;21.70;74.50
67598;DHT22;62026;39.230;9.122;2023-06-04T01:15:49;21.70;74.40
67598;DHT22;62026;39.230;9.122;2023-06-04T01:18:26;21.70;74.20
67598;DHT22;62026;39.230;9.122;2023-06-04T01:21:08;21.60;74.30
67598;DHT22;62026;39.230;9.122;2023-06-04T01:23:47;21.60;74.30
67598;DHT22;62026;39.230;9.122;2023-06-04T01:26:25;21.60;74.20
67598;DHT22;62026;39.230;9.122;2023-06-04T01:28:55;21.60;74.10
67598;DHT22;62026;39.230;9.122;2023-06-04T01:31:23;21.60;74.10
67598;DHT22;62026;39.230;9.122;2023-06-04T01:33:55;21.60;73.90
67598;DHT22;62026;39.230;9.122;2023-06-04T01:36:23;21.60;74.00
67598;DHT22;62026;39.230;9.122;2023-06-04T01:38:50;21.60;73.70
67598;DHT22;62026;39.230;9.122;2023-06-04T01:41:17;21.60;73.60
67598;DHT22;62026;39.230;9.122;2023-06-04T01:43:43;21.50;73.40
67598;DHT22;62026;39.230;9.122;2023-06-04T01:46:10;21.50;73.50
67598;DHT22;62026;39.230;9.122;2023-06-04T01:48:36;21.60;73.30
67598;DHT22;62026;39.230;9.122;2023-06-04T01:51:03;21.50;73.20
67598;DHT22;62026;39.230;9.122;2023-06-04T01:53:29;21.60;73.10
67598;DHT22;62026;39.230;9.122;2023-06-04T01:55:56;21.60;73.10
67598;DHT22;62026;39.230;9.122;2023-06-04T01:58:23;21.60;73.00
67598;DHT22;62026;39.230;9.122;2023-06-04T02:00:52;21.60;73.00
67598;DHT22;62026;39.230;9.122;2023-06-04T02:03:21;21.60;73.10
67598;DHT22;62026;39.230;9.122;2023-06-04T02:05:49;21.60;73.20
67598;DHT22;62026;39.230;9.122;2023-06-04T02:08:15;21.50;73.20
67598;DHT22;62026;39.230;9.122;2023-06-04T02:10:48;21.50;73.20
67598;DHT22;62026;39.230;9.122;2023-06-04T02:13:15;21.60;73.20
67598;DHT22;62026;39.230;9.122;2023-06-04T02:15:41;21.60;73.10
67598;DHT22;62026;39.230;9.122;2023-06-04T02:18:16;21.70;73.00
67598;DHT22;62026;39.230;9.122;2023-06-04T02:20:50;21.60;73.20
67598;DHT22;62026;39.230;9.122;2023-06-04T02:23:18;21.70;73.20
67598;DHT22;62026;39.230;9.122;2023-06-04T02:25:46;21.70;73.00
67598;DHT22;62026;39.230;9.122;2023-06-04T02:28:13;21.70;73.10
67598;DHT22;62026;39.230;9.122;2023-06-04T02:30:40;21.60;73.50
67598;DHT22;62026;39.230;9.122;2023-06-04T02:33:06;21.60;73.70
67598;DHT22;62026;39.230;9.122;2023-06-04T02:35:35;21.60;73.50
67598;DHT22;62026;39.230;9.122;2023-06-04T02:38:03;21.70;73.50
67598;DHT22;62026;39.230;9.122;2023-06-04T02:40:29;21.70;73.50
67598;DHT22;62026;39.230;9.122;2023-06-04T02:42:56;21.60;73.80
67598;DHT22;62026;39.230;9.122;2023-06-04T02:45:22;21.60;73.80
67598;DHT22;62026;39.230;9.122;2023-06-04T02:47:49;21.60;74.00
67598;DHT22;62026;39.230;9.122;2023-06-04T02:50:15;21.60;74.00
67598;DHT22;62026;39.230;9.122;2023-06-04T02:52:42;21.60;73.90
67598;DHT22;62026;39.230;9.122;2023-06-04T02:55:09;21.60;73.80
67598;DHT22;62026;39.230;9.122;2023-06-04T02:57:39;21.60;73.70
67598;DHT22;62026;39.230;9.122;2023-06-04T03:00:10;21.70;73.60
67598;DHT22;62026;39.230;9.122;2023-06-04T03:02:40;21.60;73.90
67598;DHT22;62026;39.230;9.122;2023-06-04T03:05:09;21.60;74.20
67598;DHT22;62026;39.230;9.122;2023-06-04T03:07:37;21.60;74.50
67598;DHT22;62026;39.230;9.122;2023-06-04T03:10:03;21.60;74.80
67598;DHT22;62026;39.230;9.122;2023-06-04T03:12:31;21.50;74.90
67598;DHT22;62026;39.230;9.122;2023-06-04T03:14:57;21.60;74.90
67598;DHT22;62026;39.230;9.122;2023-06-04T03:17:23;21.60;75.00
67598;DHT22;62026;39.230;9.122;2023-06-04T03:19:48;21.60;75.00
67598;DHT22;62026;39.230;9.122;2023-06-04T03:22:15;21.60;75.10
67598;DHT22;62026;39.230;9.122;2023-06-04T03:24:41;21.60;75.30
67598;DHT22;62026;39.230;9.122;2023-06-04T03:27:09;21.50;75.50
67598;DHT22;62026;39.230;9.122;2023-06-04T03:29:37;21.60;75.50
67598;DHT22;62026;39.230;9.122;2023-06-04T03:32:05;21.60;75.50
67598;DHT22;62026;39.230;9.122;2023-06-04T03:34:32;21.60;75.50
67598;DHT22;62026;39.230;9.122;2023-06-04T03:36:58;21.60;75.70
67598;DHT22;62026;39.230;9.122;2023-06-04T03:39:26;21.50;76.00
67598;DHT22;62026;39.230;9.122;2023-06-04T03:41:52;21.60;76.10
67598;DHT22;62026;39.230;9.122;2023-06-04T03:44:22;21.50;76.20
67598;DHT22;62026;39.230;9.122;2023-06-04T03:46:48;21.60;76.40
67598;DHT22;62026;39.230;9.122;2023-06-04T03:49:14;21.60;76.40
67598;DHT22;62026;39.230;9.122;2023-06-04T03:51:44;21.60;76.30
67598;DHT22;62026;39.230;9.122;2023-06-04T03:54:10;21.60;76.80
67598;DHT22;62026;39.230;9.122;2023-06-04T03:56:37;21.60;77.00
67598;DHT22;62026;39.230;9.122;2023-06-04T03:59:04;21.60;77.20
67598;DHT22;62026;39.230;9.122;2023-06-04T04:01:31;21.60;77.40
67598;DHT22;62026;39.230;9.122;2023-06-04T04:03:57;21.60;77.60
67598;DHT22;62026;39.230;9.122;2023-06-04T04:06:24;21.60;77.60
67598;DHT22;62026;39.230;9.122;2023-06-04T04:08:50;21.70;77.60
67598;DHT22;62026;39.230;9.122;2023-06-04T04:11:19;21.70;77.80
67598;DHT22;62026;39.230;9.122;2023-06-04T04:13:45;21.50;78.30
67598;DHT22;62026;39.230;9.122;2023-06-04T04:16:12;21.60;78.30
67598;DHT22;62026;39.230;9.122;2023-06-04T04:18:42;21.60;78.50
67598;DHT22;62026;39.230;9.122;2023-06-04T04:21:12;21.50;78.50
67598;DHT22;62026;39.230;9.122;2023-06-04T04:23:39;21.50;78.50
67598;DHT22;62026;39.230;9.122;2023-06-04T04:26:07;21.50;78.50
67598;DHT22;62026;39.230;9.122;2023-06-04T04:28:35;21.50;78.20
67598;DHT22;62026;39.230;9.122;2023-06-04T04:31:01;21.50;77.60
67598;DHT22;62026;39.230;9.122;2023-06-04T04:33:31;21.30;76.60
67598;DHT22;62026;39.230;9.122;2023-06-04T04:35:59;21.40;76.90
67598;DHT22;62026;39.230;9.122;2023-06-04T04:38:26;21.40;76.50
67598;DHT22;62026;39.230;9.122;2023-06-04T04:40:59;21.40;76.30
67598;DHT22;62026;39.230;9.122;2023-06-04T04:43:34;21.40;76.40
67598;DHT22;62026;39.230;9.122;2023-06-04T04:46:10;21.40;76.50
67598;DHT22;62026;39.230;9.122;2023-06-04T04:48:36;21.40;76.40
67598;DHT22;62026;39.230;9.122;2023-06-04T04:51:04;21.40;76.20
67598;DHT22;62026;39.230;9.122;2023-06-04T04:53:30;21.40;76.20
67598;DHT22;62026;39.230;9.122;2023-06-04T04:55:57;21.50;76.30
67598;DHT22;62026;39.230;9.122;2023-06-04T04:58:23;21.50;76.60
67598;DHT22;62026;39.230;9.122;2023-06-04T05:00:49;21.50;76.80
67598;DHT22;62026;39.230;9.122;2023-06-04T05:03:16;21.50;77.00
67598;DHT22;62026;39.230;9.122;2023-06-04T05:05:42;21.50;77.00
67598;DHT22;62026;39.230;9.122;2023-06-04T05:08:10;21.50;77.00
67598;DHT22;62026;39.230;9.122;2023-06-04T05:10:39;21.40;77.10
67598;DHT22;62026;39.230;9.122;2023-06-04T05:13:06;21.40;77.00
67598;DHT22;62026;39.230;9.122;2023-06-04T05:15:39;21.50;76.60
67598;DHT22;62026;39.230;9.122;2023-06-04T05:18:07;21.50;76.40
67598;DHT22;62026;39.230;9.122;2023-06-04T05:20:36;21.50;76.10
67598;DHT22;62026;39.230;9.122;2023-06-04T05:23:05;21.50;76.00
67598;DHT22;62026;39.230;9.122;2023-06-04T05:25:32;21.40;76.00
67598;DHT22;62026;39.230;9.122;2023-06-04T05:27:59;21.30;76.20
67598;DHT22;62026;39.230;9.122;2023-06-04T05:30:26;21.40;75.90
67598;DHT22;62026;39.230;9.122;2023-06-04T05:32:52;21.30;75.70
67598;DHT22;62026;39.230;9.122;2023-06-04T05:35:21;21.20;75.90
67598;DHT22;62026;39.230;9.122;2023-06-04T05:37:47;21.30;75.80
67598;DHT22;62026;39.230;9.122;2023-06-04T05:40:20;21.40;75.50
67598;DHT22;62026;39.230;9.122;2023-06-04T05:42:48;21.40;75.40
67598;DHT22;62026;39.230;9.122;2023-06-04T05:45:15;21.50;75.10
67598;DHT22;62026;39.230;9.122;2023-06-04T05:47:43;21.50;75.10
67598;DHT22;62026;39.230;9.122;2023-06-04T05:50:09;21.50;74.80
67598;DHT22;62026;39.230;9.122;2023-06-04T05:52:37;21.50;75.00
67598;DHT22;62026;39.230;9.122;2023-06-04T05:55:05;21.50;75.00
67598;DHT22;62026;39.230;9.122;2023-06-04T05:57:35;21.50;75.10
67598;DHT22;62026;39.230;9.122;2023-06-04T06:00:02;21.50;75.00
67598;DHT22;62026;39.230;9.122;2023-06-04T06:02:39;21.60;75.10
67598;DHT22;62026;39.230;9.122;2023-06-04T06:05:15;21.50;75.20
67598;DHT22;62026;39.230;9.122;2023-06-04T06:07:42;21.50;75.50
67598;DHT22;62026;39.230;9.122;2023-06-04T06:10:08;21.40;75.90
67598;DHT22;62026;39.230;9.122;2023-06-04T06:12:34;21.50;75.80
67598;DHT22;62026;39.230;9.122;2023-06-04T06:15:01;21.50;75.80
67598;DHT22;62026;39.230;9.122;2023-06-04T06:17:27;21.50;75.70
67598;DHT22;62026;39.230;9.122;2023-06-04T06:19:53;21.40;75.80
67598;DHT22;62026;39.230;9.122;2023-06-04T06:22:19;21.30;76.00
67598;DHT22;62026;39.230;9.122;2023-06-04T06:24:46;21.30;76.50
67598;DHT22;62026;39.230;9.122;2023-06-04T06:27:15;21.20;76.70
67598;DHT22;62026;39.230;9.122;2023-06-04T06:29:42;21.20;77.00
67598;DHT22;62026;39.230;9.122;2023-06-04T06:32:12;21.30;76.90
67598;DHT22;62026;39.230;9.122;2023-06-04T06:34:38;21.20;77.20
67598;DHT22;62026;39.230;9.122;2023-06-04T06:37:05;21.20;77.50
67598;DHT22;62026;39.230;9.122;2023-06-04T06:39:32;21.20;77.70
67598;DHT22;62026;39.230;9.122;2023-06-04T06:41:58;21.20;77.70
67598;DHT22;62026;39.230;9.122;2023-06-04T06:44:28;21.10;78.30
67598;DHT22;62026;39.230;9.122;2023-06-04T06:46:54;21.10;78.00
67598;DHT22;62026;39.230;9.122;2023-06-04T06:49:20;21.20;78.30
67598;DHT22;62026;39.230;9.122;2023-06-04T06:51:46;21.20;77.80
67598;DHT22;62026;39.230;9.122;2023-06-04T06:54:15;21.20;77.80
67598;DHT22;62026;39.230;9.122;2023-06-04T06:56:41;20.90;76.40
67598;DHT22;62026;39.230;9.122;2023-06-04T06:59:07;20.80;75.70
67598;DHT22;62026;39.230;9.122;2023-06-04T07:01:33;20.70;76.30
67598;DHT22;62026;39.230;9.122;2023-06-04T07:04:00;20.80;76.60
67598;DHT22;62026;39.230;9.122;2023-06-04T07:06:26;20.40;76.00
67598;DHT22;62026;39.230;9.122;2023-06-04T07:08:52;20.30;75.90
67598;DHT22;62026;39.230;9.122;2023-06-04T07:11:19;20.50;75.70
67598;DHT22;62026;39.230;9.122;2023-06-04T07:13:45;20.30;75.10
67598;DHT22;62026;39.230;9.122;2023-06-04T07:16:11;20.10;75.40
67598;DHT22;62026;39.230;9.122;2023-06-04T07:18:37;20.10;75.90
67598;DHT22;62026;39.230;9.122;2023-06-04T07:21:03;20.20;74.40
67598;DHT22;62026;39.230;9.122;2023-06-04T07:23:29;20.00;73.90
67598;DHT22;62026;39.230;9.122;2023-06-04T07:25:56;19.90;74.40
67598;DHT22;62026;39.230;9.122;2023-06-04T07:28:22;20.00;74.80
67598;DHT22;62026;39.230;9.122;2023-06-04T07:30:48;20.20;74.70
67598;DHT22;62026;39.230;9.122;2023-06-04T07:33:14;20.10;74.10
67598;DHT22;62026;39.230;9.122;2023-06-04T07:35:40;20.10;74.40
67598;DHT22;62026;39.230;9.122;2023-06-04T07:38:06;20.20;75.00
67598;DHT22;62026;39.230;9.122;2023-06-04T07:40:32;20.30;75.00
67598;DHT22;62026;39.230;9.122;2023-06-04T07:42:58;20.20;74.90
67598;DHT22;62026;39.230;9.122;2023-06-04T07:45:24;20.00;75.80
67598;DHT22;62026;39.230;9.122;2023-06-04T07:47:50;20.10;76.40
67598;DHT22;62026;39.230;9.122;2023-06-04T07:50:17;20.20;76.20
67598;DHT22;62026;39.230;9.122;2023-06-04T07:52:44;19.90;77.20
67598;DHT22;62026;39.230;9.122;2023-06-04T07:55:10;20.20;77.10
67598;DHT22;62026;39.230;9.122;2023-06-04T07:57:35;20.10;76.90
67598;DHT22;62026;39.230;9.122;2023-06-04T08:00:02;20.20;77.00
67598;DHT22;62026;39.230;9.122;2023-06-04T08:02:37;20.10;76.80
67598;DHT22;62026;39.230;9.122;2023-06-04T08:05:03;20.10;77.20
67598;DHT22;62026;39.230;9.122;2023-06-04T08:07:30;20.00;77.70
67598;DHT22;62026;39.230;9.122;2023-06-04T08:09:56;20.00;77.70
67598;DHT22;62026;39.230;9.122;2023-06-04T08:12:22;20.00;77.90
67598;DHT22;62026;39.230;9.122;2023-06-04T08:14:48;20.00;77.50
67598;DHT22;62026;39.230;9.122;2023-06-04T08:17:16;20.00;78.30
67598;DHT22;62026;39.230;9.122;2023-06-04T08:19:42;20.00;77.90
67598;DHT22;62026;39.230;9.122;2023-06-04T08:22:08;19.80;78.60
67598;DHT22;62026;39.230;9.122;2023-06-04T08:24:36;20.00;77.60
67598;DHT22;62026;39.230;9.122;2023-06-04T08:27:02;19.70;78.30
67598;DHT22;62026;39.230;9.122;2023-06-04T08:29:29;19.80;78.20
67598;DHT22;62026;39.230;9.122;2023-06-04T08:31:54;19.80;78.90
67598;DHT22;62026;39.230;9.122;2023-06-04T08:34:20;19.90;78.80
67598;DHT22;62026;39.230;9.122;2023-06-04T08:36:46;19.70;79.50
67598;DHT22;62026;39.230;9.122;2023-06-04T08:39:13;19.70;79.40
67598;DHT22;62026;39.230;9.122;2023-06-04T08:41:54;19.80;79.20
67598;DHT22;62026;39.230;9.122;2023-06-04T08:44:22;19.90;79.10
67598;DHT22;62026;39.230;9.122;2023-06-04T08:46:51;20.00;78.70
67598;DHT22;62026;39.230;9.122;2023-06-04T08:49:22;20.00;78.00
67598;DHT22;62026;39.230;9.122;2023-06-04T08:51:50;20.00;78.10
67598;DHT22;62026;39.230;9.122;2023-06-04T08:54:16;20.00;78.30
67598;DHT22;62026;39.230;9.122;2023-06-04T08:56:44;20.10;78.30
67598;DHT22;62026;39.230;9.122;2023-06-04T08:59:11;20.20;78.20
67598;DHT22;62026;39.230;9.122;2023-06-04T09:01:37;20.10;77.80
67598;DHT22;62026;39.230;9.122;2023-06-04T09:04:06;20.10;77.90
67598;DHT22;62026;39.230;9.122;2023-06-04T09:06:33;20.10;77.80
67598;DHT22;62026;39.230;9.122;2023-06-04T09:09:02;20.10;77.80
67598;DHT22;62026;39.230;9.122;2023-06-04T09:11:36;20.10;77.70
67598;DHT22;62026;39.230;9.122;2023-06-04T09:14:11;20.10;77.90
67598;DHT22;62026;39.230;9.122;2023-06-04T09:16:45;20.20;77.60
67598;DHT22;62026;39.230;9.122;2023-06-04T09:19:16;20.10;78.00
67598;DHT22;62026;39.230;9.122;2023-06-04T09:24:13;20.10;78.90
67598;DHT22;62026;39.230;9.122;2023-06-04T09:26:39;20.10;78.40
67598;DHT22;62026;39.230;9.122;2023-06-04T09:29:05;20.10;78.20
67598;DHT22;62026;39.230;9.122;2023-06-04T09:31:32;20.10;78.10
67598;DHT22;62026;39.230;9.122;2023-06-04T09:34:03;20.20;77.90
67598;DHT22;62026;39.230;9.122;2023-06-04T09:36:35;20.10;77.60
67598;DHT22;62026;39.230;9.122;2023-06-04T09:39:16;20.10;77.90
67598;DHT22;62026;39.230;9.122;2023-06-04T09:41:42;20.20;77.80
67598;DHT22;62026;39.230;9.122;2023-06-04T09:44:09;20.10;77.30
67598;DHT22;62026;39.230;9.122;2023-06-04T09:46:36;20.00;77.40
67598;DHT22;62026;39.230;9.122;2023-06-04T09:49:04;19.90;77.30
67598;DHT22;62026;39.230;9.122;2023-06-04T09:51:31;20.00;77.30
67598;DHT22;62026;39.230;9.122;2023-06-04T09:54:00;20.00;76.90
67598;DHT22;62026;39.230;9.122;2023-06-04T09:56:27;20.00;77.00
67598;DHT22;62026;39.230;9.122;2023-06-04T09:58:58;20.00;77.50
67598;DHT22;62026;39.230;9.122;2023-06-04T10:01:29;20.00;77.10
67598;DHT22;62026;39.230;9.122;2023-06-04T10:03:58;19.90;77.70
67598;DHT22;62026;39.230;9.122;2023-06-04T10:06:32;20.00;78.00
67598;DHT22;62026;39.230;9.122;2023-06-04T10:09:07;20.10;77.90
67598;DHT22;62026;39.230;9.122;2023-06-04T10:11:56;20.10;77.90
67598;DHT22;62026;39.230;9.122;2023-06-04T10:14:32;20.00;78.00
67598;DHT22;62026;39.230;9.122;2023-06-04T10:17:06;20.00;78.00
67598;DHT22;62026;39.230;9.122;2023-06-04T10:19:35;20.10;78.10
67598;DHT22;62026;39.230;9.122;2023-06-04T10:22:04;20.10;78.10
67598;DHT22;62026;39.230;9.122;2023-06-04T10:24:31;20.00;77.90
67598;DHT22;62026;39.230;9.122;2023-06-04T10:27:00;19.90;77.50
67598;DHT22;62026;39.230;9.122;2023-06-04T10:29:30;19.90;77.70
67598;DHT22;62026;39.230;9.122;2023-06-04T10:31:56;19.90;77.70
67598;DHT22;62026;39.230;9.122;2023-06-04T10:34:22;19.90;78.00
67598;DHT22;62026;39.230;9.122;2023-06-04T10:36:48;19.90;78.10
67598;DHT22;62026;39.230;9.122;2023-06-04T10:39:27;19.90;78.80
67598;DHT22;62026;39.230;9.122;2023-06-04T10:42:12;19.90;79.20
67598;DHT22;62026;39.230;9.122;2023-06-04T10:44:46;19.90;79.20
67598;DHT22;62026;39.230;9.122;2023-06-04T10:47:24;19.90;79.50
67598;DHT22;62026;39.230;9.122;2023-06-04T10:49:52;19.80;79.20
67598;DHT22;62026;39.230;9.122;2023-06-04T10:52:21;19.70;79.60
67598;DHT22;62026;39.230;9.122;2023-06-04T10:54:47;19.60;79.80
67598;DHT22;62026;39.230;9.122;2023-06-04T10:57:19;19.60;80.00
67598;DHT22;62026;39.230;9.122;2023-06-04T10:59:55;19.60;80.50
67598;DHT22;62026;39.230;9.122;2023-06-04T11:02:25;19.70;80.50
67598;DHT22;62026;39.230;9.122;2023-06-04T11:05:01;19.70;80.00
67598;DHT22;62026;39.230;9.122;2023-06-04T11:07:46;19.70;80.10
67598;DHT22;62026;39.230;9.122;2023-06-04T11:10:13;19.80;80.00
67598;DHT22;62026;39.230;9.122;2023-06-04T11:12:48;19.90;79.70
67598;DHT22;62026;39.230;9.122;2023-06-04T11:15:18;20.00;79.30
67598;DHT22;62026;39.230;9.122;2023-06-04T11:17:52;20.00;79.10
67598;DHT22;62026;39.230;9.122;2023-06-04T11:20:20;20.10;78.70
67598;DHT22;62026;39.230;9.122;2023-06-04T11:22:57;20.10;78.40
67598;DHT22;62026;39.230;9.122;2023-06-04T11:25:29;20.20;78.20
67598;DHT22;62026;39.230;9.122;2023-06-04T11:27:59;20.20;78.40
67598;DHT22;62026;39.230;9.122;2023-06-04T11:30:27;20.30;78.20
67598;DHT22;62026;39.230;9.122;2023-06-04T11:33:06;20.30;78.00
67598;DHT22;62026;39.230;9.122;2023-06-04T11:35:40;20.30;77.90
67598;DHT22;62026;39.230;9.122;2023-06-04T11:38:07;20.20;77.70
67598;DHT22;62026;39.230;9.122;2023-06-04T11:40:34;20.30;78.00
67598;DHT22;62026;39.230;9.122;2023-06-04T11:43:00;20.20;77.70
67598;DHT22;62026;39.230;9.122;2023-06-04T11:45:27;20.30;77.70
67598;DHT22;62026;39.230;9.122;2023-06-04T11:47:56;20.40;77.70
67598;DHT22;62026;39.230;9.122;2023-06-04T11:50:27;20.40;78.00
67598;DHT22;62026;39.230;9.122;2023-06-04T11:52:54;20.50;78.10
67598;DHT22;62026;39.230;9.122;2023-06-04T11:55:21;20.60;77.70
67598;DHT22;62026;39.230;9.122;2023-06-04T11:57:47;20.60;77.90
67598;DHT22;62026;39.230;9.122;2023-06-04T12:00:15;20.60;77.60
67598;DHT22;62026;39.230;9.122;2023-06-04T12:02:54;20.60;77.30
67598;DHT22;62026;39.230;9.122;2023-06-04T12:05:29;20.70;77.30
67598;DHT22;62026;39.230;9.122;2023-06-04T12:08:09;20.70;77.10
67598;DHT22;62026;39.230;9.122;2023-06-04T12:10:40;20.80;77.10
67598;DHT22;62026;39.230;9.122;2023-06-04T12:13:08;20.90;76.30
67598;DHT22;62026;39.230;9.122;2023-06-04T12:15:35;20.90;76.30
67598;DHT22;62026;39.230;9.122;2023-06-04T12:18:01;21.00;76.20
67598;DHT22;62026;39.230;9.122;2023-06-04T12:20:34;21.00;75.90
67598;DHT22;62026;39.230;9.122;2023-06-04T12:23:02;21.10;75.80
67598;DHT22;62026;39.230;9.122;2023-06-04T12:25:29;21.10;75.90
67598;DHT22;62026;39.230;9.122;2023-06-04T12:27:56;21.20;75.80
67598;DHT22;62026;39.230;9.122;2023-06-04T12:30:22;21.30;75.60
67598;DHT22;62026;39.230;9.122;2023-06-04T12:32:49;21.40;75.10
67598;DHT22;62026;39.230;9.122;2023-06-04T12:35:16;21.50;75.10
67598;DHT22;62026;39.230;9.122;2023-06-04T12:37:42;21.60;74.80
67598;DHT22;62026;39.230;9.122;2023-06-04T12:40:08;21.60;74.80
67598;DHT22;62026;39.230;9.122;2023-06-04T12:42:35;21.60;75.20
67598;DHT22;62026;39.230;9.122;2023-06-04T12:45:01;21.60;75.40
67598;DHT22;62026;39.230;9.122;2023-06-04T12:47:27;21.70;75.50
67598;DHT22;62026;39.230;9.122;2023-06-04T12:49:52;21.80;75.30
67598;DHT22;62026;39.230;9.122;2023-06-04T12:52:18;21.80;75.30
67598;DHT22;62026;39.230;9.122;2023-06-04T12:54:44;21.90;74.80
67598;DHT22;62026;39.230;9.122;2023-06-04T12:57:11;21.90;74.70
67598;DHT22;62026;39.230;9.122;2023-06-04T12:59:37;21.90;74.80
67598;DHT22;62026;39.230;9.122;2023-06-04T13:02:03;21.80;75.40
67598;DHT22;62026;39.230;9.122;2023-06-04T13:04:28;21.80;75.60
67598;DHT22;62026;39.230;9.122;2023-06-04T13:06:56;21.80;75.90
67598;DHT22;62026;39.230;9.122;2023-06-04T13:09:25;21.80;75.60
67598;DHT22;62026;39.230;9.122;2023-06-04T13:11:53;21.80;75.60
67598;DHT22;62026;39.230;9.122;2023-06-04T13:14:20;21.70;75.50
67598;DHT22;62026;39.230;9.122;2023-06-04T13:16:46;21.70;75.60
67598;DHT22;62026;39.230;9.122;2023-06-04T13:19:14;21.70;75.90
67598;DHT22;62026;39.230;9.122;2023-06-04T13:21:40;21.70;75.70
67598;DHT22;62026;39.230;9.122;2023-06-04T13:24:09;21.70;75.90
67598;DHT22;62026;39.230;9.122;2023-06-04T13:26:36;21.70;75.80
67598;DHT22;62026;39.230;9.122;2023-06-04T13:29:04;21.70;75.60
67598;DHT22;62026;39.230;9.122;2023-06-04T13:31:30;21.70;75.30
67598;DHT22;62026;39.230;9.122;2023-06-04T13:33:56;21.70;75.20
67598;DHT22;62026;39.230;9.122;2023-06-04T13:36:22;21.80;75.30
67598;DHT22;62026;39.230;9.122;2023-06-04T13:38:48;21.80;75.20
67598;DHT22;62026;39.230;9.122;2023-06-04T13:41:14;21.80;74.80
67598;DHT22;62026;39.230;9.122;2023-06-04T13:43:40;21.80;74.70
67598;DHT22;62026;39.230;9.122;2023-06-04T13:46:06;21.80;74.20
67598;DHT22;62026;39.230;9.122;2023-06-04T13:48:32;21.80;73.60
67598;DHT22;62026;39.230;9.122;2023-06-04T13:50:58;21.90;73.50
67598;DHT22;62026;39.230;9.122;2023-06-04T13:53:24;22.00;73.30
67598;DHT22;62026;39.230;9.122;2023-06-04T13:55:50;22.00;72.90
67598;DHT22;62026;39.230;9.122;2023-06-04T13:58:23;21.90;72.10
67598;DHT22;62026;39.230;9.122;2023-06-04T14:00:50;21.90;72.40
67598;DHT22;62026;39.230;9.122;2023-06-04T14:03:17;21.90;72.30
67598;DHT22;62026;39.230;9.122;2023-06-04T14:05:43;21.90;72.40
67598;DHT22;62026;39.230;9.122;2023-06-04T14:08:09;21.90;72.70
67598;DHT22;62026;39.230;9.122;2023-06-04T14:10:35;21.90;72.70
67598;DHT22;62026;39.230;9.122;2023-06-04T14:13:07;22.00;72.50
67598;DHT22;62026;39.230;9.122;2023-06-04T14:15:34;21.90;72.10
67598;DHT22;62026;39.230;9.122;2023-06-04T14:18:00;21.90;71.90
67598;DHT22;62026;39.230;9.122;2023-06-04T14:20:27;21.90;71.50
67598;DHT22;62026;39.230;9.122;2023-06-04T14:22:53;21.90;71.00
67598;DHT22;62026;39.230;9.122;2023-06-04T14:25:19;21.90;71.00
67598;DHT22;62026;39.230;9.122;2023-06-04T14:27:45;21.90;70.50
67598;DHT22;62026;39.230;9.122;2023-06-04T14:30:11;21.80;69.10
67598;DHT22;62026;39.230;9.122;2023-06-04T14:32:37;21.80;69.50
67598;DHT22;62026;39.230;9.122;2023-06-04T14:35:06;21.80;69.60
67598;DHT22;62026;39.230;9.122;2023-06-04T14:37:32;21.80;69.70
67598;DHT22;62026;39.230;9.122;2023-06-04T14:39:58;21.80;70.00
67598;DHT22;62026;39.230;9.122;2023-06-04T14:42:24;21.80;69.60
67598;DHT22;62026;39.230;9.122;2023-06-04T14:44:50;21.80;69.60
67598;DHT22;62026;39.230;9.122;2023-06-04T14:47:16;21.80;69.20
67598;DHT22;62026;39.230;9.122;2023-06-04T14:49:42;21.90;68.70
67598;DHT22;62026;39.230;9.122;2023-06-04T14:52:08;21.90;68.30
67598;DHT22;62026;39.230;9.122;2023-06-04T14:54:34;21.90;67.20
67598;DHT22;62026;39.230;9.122;2023-06-04T14:57:00;21.80;66.70
67598;DHT22;62026;39.230;9.122;2023-06-04T14:59:28;21.80;66.70
67598;DHT22;62026;39.230;9.122;2023-06-04T15:01:54;21.80;66.90
67598;DHT22;62026;39.230;9.122;2023-06-04T15:04:20;21.90;65.70
67598;DHT22;62026;39.230;9.122;2023-06-04T15:06:46;21.90;65.40
67598;DHT22;62026;39.230;9.122;2023-06-04T15:09:12;21.80;64.50
67598;DHT22;62026;39.230;9.122;2023-06-04T15:11:39;21.80;64.80
67598;DHT22;62026;39.230;9.122;2023-06-04T15:14:05;21.80;65.50
67598;DHT22;62026;39.230;9.122;2023-06-04T15:16:31;21.80;64.90
67598;DHT22;62026;39.230;9.122;2023-06-04T15:18:57;21.60;65.20
67598;DHT22;62026;39.230;9.122;2023-06-04T15:21:23;21.60;66.00
67598;DHT22;62026;39.230;9.122;2023-06-04T15:23:49;21.60;66.10
67598;DHT22;62026;39.230;9.122;2023-06-04T15:26:17;21.70;66.20
67598;DHT22;62026;39.230;9.122;2023-06-04T15:28:43;21.70;67.10
67598;DHT22;62026;39.230;9.122;2023-06-04T15:31:09;21.70;66.60
67598;DHT22;62026;39.230;9.122;2023-06-04T15:33:35;21.70;66.80
67598;DHT22;62026;39.230;9.122;2023-06-04T15:36:01;21.70;66.40
67598;DHT22;62026;39.230;9.122;2023-06-04T15:38:27;21.70;66.80
67598;DHT22;62026;39.230;9.122;2023-06-04T15:40:53;21.70;66.40